Airfield :
LOGIN :

Register | Disclaimer

   EN    FR    IT 

 










Legend :    VFR   Marginal VFR   IFR   Intensive IFR   Very Intensive IFR
Visi :
Ceiling :
>= 8 km
>= 3000ft
5 to 8 km
1000 to 3000 ft
1500m to 5 km
500 to 1000 ft
800 to 1500m
200 to 500 ft
< 800m
< 200 ft
Symbols :   Thunderstorms  Fog  Heavy snow  Heavy precipitations  Wind > 20 kt
SIGMETs :     Misc.  Thunderstorms  Icing  Turbulence  Mountain Waves  Volcanic Ashes






- Airport Elevation : 870 ft
- IATA code : ETZ


LFJL - Metz Nancy Lorraine

CURRENT METAR :
  • 280530Z AUTO 16013KT 3800 RA BR SCT009/// OVC017/// ///CB 04/04 Q1006 TEMPO OVC008

EXPIRED METARs :
  • 280500Z AUTO 16012KT 5000 -RA BR BKN007 BKN017 BKN028 04/04 Q1007 TEMPO 2000 -RADZ BR OVC003
  • 280430Z AUTO 16014KT 5000 -RA BR FEW002 SCT018 BKN028 04/04 Q1008 TEMPO 2000 -RADZ BR OVC008
  • 280400Z AUTO 16012KT 4100 -RA BR FEW004/// SCT012/// BKN029/// ///TCU 04/04 Q1009 TEMPO 2000 -RADZ BR OVC003
  • 280330Z AUTO 16013KT 4000 -RA BR OVC006/// ///TCU 04/03 Q1010 TEMPO 2000 -RADZ BR OVC003

TAF AMD TAF LFJL
Valid from the 28 at 00:00 until the 29 at 00:00 UTC


280009Z 2800/2824 17010KT 9999 SCT008 OVC015
TEMPO 2800/2806 2000 -RADZ BR OVC003
PROB40
TEMPO 2800/2804 0800 -DZ FG OVC001
TEMPO 2806/2812 4000 RA OVC008
TEMPO 2812/2819 26015G30KT 4000 RA OVC010
TEMPO 2819/2824 RA



MET'MAP, your aeronautical weather chart ! - Copyright ORBIFLY December 2007 - Disclaimer

ORBIFLY MET'MAP TEAM :

Programming & Development : Alexandra Zaïnal
Concept & original design : Baudouin d'Aumeries
Assistance for programming : Marc-Olivier Méhu
Technical & hardware support : Manuel Goepfert

Contact : metmap@orbifly.com




SOURCES & CREDITS :

   NOAA